Walla Walla, Washington
Current Conditions -  °F | °C
As of 11:53 AM on Thursday 23 Oct 2014 (Local Time) from KALW Reporting Station
Light Rain Light Rain  
Wind Chill: 16°   Ceiling: 7000
Heat Index: 16°   Visibility: 10mi
Dew Point: 13°   Wind: 10mph
Humidity: 86%   Direction: 320°NW
Pressure: 29.81"   Gusts: NA
Location:  46.07°N, 118.34°W
Report Text: KALW 231853Z 32009KT 10SM -RA BKN070 BKN085 OVC110 16/13 A2981 RMK AO2 RAB17 SLP092 P0001 T01560133
Loading
Personal Weather Stations






























Interactive Weather Map New forecast layout! Learn more

10-Day Weather Forecast

Advertisements
Track Severe Weather on mobile